sensor_id;sensor_type;location;lat;lon;timestamp;P1;durP1;ratioP1;P2;durP2;ratioP2
32106;SDS011;18622;51.998;10.440;2023-06-14T02:48:59;2.77;;;2.00;;
32106;SDS011;18622;51.998;10.440;2023-06-14T02:51:27;5.33;;;2.37;;
32106;SDS011;18622;51.998;10.440;2023-06-14T02:53:55;4.57;;;2.37;;
32106;SDS011;18622;51.998;10.440;2023-06-14T02:56:22;6.20;;;2.87;;
32106;SDS011;18622;51.998;10.440;2023-06-14T02:58:51;4.20;;;2.50;;
32106;SDS011;18622;51.998;10.440;2023-06-14T03:01:19;6.37;;;2.40;;
32106;SDS011;18622;51.998;10.440;2023-06-14T03:03:47;8.77;;;2.80;;
32106;SDS011;18622;51.998;10.440;2023-06-14T03:06:15;4.27;;;2.60;;
32106;SDS011;18622;51.998;10.440;2023-06-14T03:08:43;4.00;;;2.40;;
32106;SDS011;18622;51.998;10.440;2023-06-14T03:11:11;13.40;;;2.23;;
32106;SDS011;18622;51.998;10.440;2023-06-14T03:13:38;4.93;;;2.30;;
32106;SDS011;18622;51.998;10.440;2023-06-14T03:16:06;6.20;;;2.30;;
32106;SDS011;18622;51.998;10.440;2023-06-14T03:18:34;4.93;;;2.13;;
32106;SDS011;18622;51.998;10.440;2023-06-14T03:21:04;3.60;;;2.30;;
32106;SDS011;18622;51.998;10.440;2023-06-14T03:23:33;2.92;;;2.20;;
32106;SDS011;18622;51.998;10.440;2023-06-14T03:26:01;4.37;;;2.10;;
32106;SDS011;18622;51.998;10.440;2023-06-14T03:28:29;5.43;;;2.00;;
32106;SDS011;18622;51.998;10.440;2023-06-14T03:30:57;3.10;;;2.13;;
32106;SDS011;18622;51.998;10.440;2023-06-14T03:33:25;6.23;;;2.30;;
32106;SDS011;18622;51.998;10.440;2023-06-14T03:35:52;3.07;;;2.17;;
32106;SDS011;18622;51.998;10.440;2023-06-14T03:38:22;4.40;;;1.90;;
32106;SDS011;18622;51.998;10.440;2023-06-14T03:40:50;3.30;;;2.00;;
32106;SDS011;18622;51.998;10.440;2023-06-14T03:43:17;6.10;;;2.20;;
32106;SDS011;18622;51.998;10.440;2023-06-14T03:45:45;3.30;;;2.20;;
32106;SDS011;18622;51.998;10.440;2023-06-14T03:48:13;3.43;;;2.17;;
32106;SDS011;18622;51.998;10.440;2023-06-14T03:50:41;3.97;;;2.13;;
32106;SDS011;18622;51.998;10.440;2023-06-14T03:53:09;2.10;;;1.90;;
32106;SDS011;18622;51.998;10.440;2023-06-14T03:55:36;3.63;;;2.07;;
32106;SDS011;18622;51.998;10.440;2023-06-14T03:58:05;3.65;;;2.83;;
32106;SDS011;18622;51.998;10.440;2023-06-14T04:00:33;2.07;;;1.83;;
32106;SDS011;18622;51.998;10.440;2023-06-14T04:03:01;4.00;;;1.87;;
32106;SDS011;18622;51.998;10.440;2023-06-14T04:05:31;2.42;;;2.10;;
32106;SDS011;18622;51.998;10.440;2023-06-14T04:07:58;2.23;;;2.00;;
32106;SDS011;18622;51.998;10.440;2023-06-14T04:10:27;3.03;;;2.17;;
32106;SDS011;18622;51.998;10.440;2023-06-14T04:12:54;4.73;;;2.63;;
32106;SDS011;18622;51.998;10.440;2023-06-14T04:15:22;6.43;;;2.67;;
32106;SDS011;18622;51.998;10.440;2023-06-14T04:17:50;4.27;;;2.50;;
32106;SDS011;18622;51.998;10.440;2023-06-14T04:20:20;4.60;;;2.45;;
32106;SDS011;18622;51.998;10.440;2023-06-14T04:22:48;3.30;;;2.40;;
32106;SDS011;18622;51.998;10.440;2023-06-14T04:25:16;6.50;;;2.03;;
32106;SDS011;18622;51.998;10.440;2023-06-14T04:27:44;5.20;;;2.40;;
32106;SDS011;18622;51.998;10.440;2023-06-14T04:30:13;5.47;;;2.83;;
32106;SDS011;18622;51.998;10.440;2023-06-14T04:32:41;6.20;;;2.30;;
32106;SDS011;18622;51.998;10.440;2023-06-14T04:35:09;5.12;;;2.27;;
32106;SDS011;18622;51.998;10.440;2023-06-14T04:37:37;3.53;;;1.97;;
32106;SDS011;18622;51.998;10.440;2023-06-14T04:40:07;10.38;;;2.17;;
32106;SDS011;18622;51.998;10.440;2023-06-14T04:42:35;5.30;;;1.90;;
32106;SDS011;18622;51.998;10.440;2023-06-14T04:45:03;3.07;;;1.83;;
32106;SDS011;18622;51.998;10.440;2023-06-14T04:47:31;4.77;;;2.20;;
32106;SDS011;18622;51.998;10.440;2023-06-14T04:50:00;5.72;;;2.08;;
32106;SDS011;18622;51.998;10.440;2023-06-14T04:52:29;3.70;;;2.05;;
32106;SDS011;18622;51.998;10.440;2023-06-14T04:54:57;3.92;;;2.35;;
32106;SDS011;18622;51.998;10.440;2023-06-14T04:57:25;3.92;;;2.40;;
32106;SDS011;18622;51.998;10.440;2023-06-14T04:59:53;4.73;;;2.20;;
32106;SDS011;18622;51.998;10.440;2023-06-14T05:02:24;7.63;;;4.10;;
32106;SDS011;18622;51.998;10.440;2023-06-14T05:04:53;4.00;;;1.90;;
32106;SDS011;18622;51.998;10.440;2023-06-14T05:07:22;3.00;;;2.00;;
32106;SDS011;18622;51.998;10.440;2023-06-14T05:09:50;2.63;;;1.93;;
32106;SDS011;18622;51.998;10.440;2023-06-14T05:12:18;6.33;;;2.43;;
32106;SDS011;18622;51.998;10.440;2023-06-14T05:14:46;2.40;;;2.13;;
32106;SDS011;18622;51.998;10.440;2023-06-14T05:17:14;6.00;;;2.17;;
32106;SDS011;18622;51.998;10.440;2023-06-14T05:19:42;9.73;;;2.70;;
32106;SDS011;18622;51.998;10.440;2023-06-14T05:22:10;3.90;;;2.03;;
32106;SDS011;18622;51.998;10.440;2023-06-14T05:24:38;8.00;;;2.20;;
32106;SDS011;18622;51.998;10.440;2023-06-14T05:27:06;2.40;;;1.77;;
32106;SDS011;18622;51.998;10.440;2023-06-14T05:29:34;3.53;;;1.60;;
32106;SDS011;18622;51.998;10.440;2023-06-14T14:46:33;6.63;;;2.77;;
32106;SDS011;18622;51.998;10.440;2023-06-14T14:49:01;4.75;;;2.80;;
32106;SDS011;18622;51.998;10.440;2023-06-14T14:51:29;6.27;;;3.00;;
32106;SDS011;18622;51.998;10.440;2023-06-14T14:53:57;10.57;;;3.13;;
32106;SDS011;18622;51.998;10.440;2023-06-14T14:56:24;3.90;;;2.80;;
32106;SDS011;18622;51.998;10.440;2023-06-14T14:58:53;11.47;;;3.80;;
32106;SDS011;18622;51.998;10.440;2023-06-14T15:01:20;4.57;;;3.50;;
32106;SDS011;18622;51.998;10.440;2023-06-14T15:03:48;9.83;;;3.40;;
32106;SDS011;18622;51.998;10.440;2023-06-14T15:06:15;9.68;;;3.50;;
32106;SDS011;18622;51.998;10.440;2023-06-14T15:08:43;9.73;;;3.30;;
32106;SDS011;18622;51.998;10.440;2023-06-14T15:11:11;11.30;;;4.95;;
32106;SDS011;18622;51.998;10.440;2023-06-14T15:13:39;8.27;;;3.80;;
32106;SDS011;18622;51.998;10.440;2023-06-14T15:16:06;6.62;;;4.05;;
32106;SDS011;18622;51.998;10.440;2023-06-14T15:18:34;7.90;;;3.65;;
32106;SDS011;18622;51.998;10.440;2023-06-14T15:21:01;4.22;;;2.85;;
32106;SDS011;18622;51.998;10.440;2023-06-14T15:23:29;7.70;;;3.58;;
32106;SDS011;18622;51.998;10.440;2023-06-14T15:25:56;3.67;;;2.98;;
32106;SDS011;18622;51.998;10.440;2023-06-14T15:28:24;5.40;;;3.02;;
32106;SDS011;18622;51.998;10.440;2023-06-14T15:30:59;11.15;;;3.70;;
32106;SDS011;18622;51.998;10.440;2023-06-14T15:33:23;8.50;;;3.62;;
32106;SDS011;18622;51.998;10.440;2023-06-14T15:35:51;8.97;;;3.37;;
32106;SDS011;18622;51.998;10.440;2023-06-14T15:38:24;6.20;;;3.50;;
32106;SDS011;18622;51.998;10.440;2023-06-14T15:40:49;8.17;;;3.10;;
32106;SDS011;18622;51.998;10.440;2023-06-14T15:43:16;5.03;;;4.10;;
32106;SDS011;18622;51.998;10.440;2023-06-14T15:45:44;11.80;;;4.42;;
32106;SDS011;18622;51.998;10.440;2023-06-14T15:48:11;8.60;;;3.37;;
32106;SDS011;18622;51.998;10.440;2023-06-14T15:50:39;6.10;;;3.70;;
32106;SDS011;18622;51.998;10.440;2023-06-14T15:53:07;9.10;;;3.30;;
32106;SDS011;18622;51.998;10.440;2023-06-14T15:55:35;7.90;;;3.40;;
32106;SDS011;18622;51.998;10.440;2023-06-14T15:58:03;4.47;;;3.50;;
32106;SDS011;18622;51.998;10.440;2023-06-14T16:00:30;10.07;;;5.00;;
32106;SDS011;18622;51.998;10.440;2023-06-14T16:02:58;8.18;;;3.80;;
32106;SDS011;18622;51.998;10.440;2023-06-14T16:05:25;10.82;;;3.58;;
32106;SDS011;18622;51.998;10.440;2023-06-14T16:07:53;5.92;;;3.47;;
32106;SDS011;18622;51.998;10.440;2023-06-14T16:10:20;6.45;;;3.30;;
32106;SDS011;18622;51.998;10.440;2023-06-14T16:12:48;8.13;;;3.50;;
32106;SDS011;18622;51.998;10.440;2023-06-14T16:15:16;5.60;;;3.57;;
32106;SDS011;18622;51.998;10.440;2023-06-14T16:17:43;6.92;;;3.12;;
32106;SDS011;18622;51.998;10.440;2023-06-14T16:20:11;7.70;;;3.30;;
32106;SDS011;18622;51.998;10.440;2023-06-14T16:22:39;5.57;;;2.80;;
32106;SDS011;18622;51.998;10.440;2023-06-14T16:25:06;10.53;;;3.02;;
32106;SDS011;18622;51.998;10.440;2023-06-14T16:27:34;9.70;;;3.23;;
32106;SDS011;18622;51.998;10.440;2023-06-14T16:30:02;9.48;;;4.00;;
32106;SDS011;18622;51.998;10.440;2023-06-14T16:32:31;8.40;;;3.40;;
32106;SDS011;18622;51.998;10.440;2023-06-14T16:34:59;9.58;;;3.08;;
32106;SDS011;18622;51.998;10.440;2023-06-14T16:37:27;7.37;;;3.55;;
32106;SDS011;18622;51.998;10.440;2023-06-14T16:39:54;11.05;;;3.67;;
32106;SDS011;18622;51.998;10.440;2023-06-14T16:42:22;15.10;;;3.37;;
32106;SDS011;18622;51.998;10.440;2023-06-14T16:44:49;7.45;;;3.05;;
32106;SDS011;18622;51.998;10.440;2023-06-14T16:47:17;11.35;;;3.58;;
32106;SDS011;18622;51.998;10.440;2023-06-14T16:49:45;5.30;;;3.13;;
32106;SDS011;18622;51.998;10.440;2023-06-14T16:52:13;13.13;;;3.77;;
32106;SDS011;18622;51.998;10.440;2023-06-14T16:54:40;6.35;;;4.05;;
32106;SDS011;18622;51.998;10.440;2023-06-14T16:57:08;11.20;;;3.33;;
32106;SDS011;18622;51.998;10.440;2023-06-14T16:59:37;8.40;;;3.08;;
32106;SDS011;18622;51.998;10.440;2023-06-14T17:02:05;8.10;;;3.33;;
32106;SDS011;18622;51.998;10.440;2023-06-14T17:04:32;7.73;;;2.50;;
32106;SDS011;18622;51.998;10.440;2023-06-14T17:07:00;4.80;;;3.07;;
32106;SDS011;18622;51.998;10.440;2023-06-14T17:09:29;9.43;;;2.98;;
32106;SDS011;18622;51.998;10.440;2023-06-14T17:11:57;5.40;;;3.10;;
32106;SDS011;18622;51.998;10.440;2023-06-14T17:14:25;4.27;;;3.03;;
32106;SDS011;18622;51.998;10.440;2023-06-14T17:16:53;8.30;;;3.37;;
32106;SDS011;18622;51.998;10.440;2023-06-14T17:19:21;7.50;;;3.00;;
32106;SDS011;18622;51.998;10.440;2023-06-14T17:21:49;5.00;;;3.30;;
32106;SDS011;18622;51.998;10.440;2023-06-14T17:24:18;12.53;;;3.20;;
32106;SDS011;18622;51.998;10.440;2023-06-14T17:26:46;5.90;;;2.80;;
32106;SDS011;18622;51.998;10.440;2023-06-14T17:29:14;6.45;;;2.98;;
32106;SDS011;18622;51.998;10.440;2023-06-14T17:31:42;6.33;;;3.10;;
32106;SDS011;18622;51.998;10.440;2023-06-14T17:34:10;11.50;;;3.77;;
32106;SDS011;18622;51.998;10.440;2023-06-14T17:36:38;4.77;;;3.17;;
32106;SDS011;18622;51.998;10.440;2023-06-14T17:39:06;10.70;;;2.67;;
32106;SDS011;18622;51.998;10.440;2023-06-14T17:41:34;5.25;;;2.60;;
32106;SDS011;18622;51.998;10.440;2023-06-14T17:44:02;7.80;;;3.03;;
32106;SDS011;18622;51.998;10.440;2023-06-14T17:46:30;8.65;;;2.77;;
32106;SDS011;18622;51.998;10.440;2023-06-14T17:48:57;6.13;;;2.63;;
32106;SDS011;18622;51.998;10.440;2023-06-14T17:51:25;9.27;;;2.73;;
32106;SDS011;18622;51.998;10.440;2023-06-14T17:53:53;5.33;;;2.97;;
32106;SDS011;18622;51.998;10.440;2023-06-14T17:56:22;7.00;;;2.70;;
32106;SDS011;18622;51.998;10.440;2023-06-14T17:58:50;6.35;;;3.45;;
32106;SDS011;18622;51.998;10.440;2023-06-14T18:01:19;7.83;;;2.85;;
32106;SDS011;18622;51.998;10.440;2023-06-14T18:03:47;8.10;;;3.47;;
32106;SDS011;18622;51.998;10.440;2023-06-14T18:06:15;6.13;;;3.23;;
32106;SDS011;18622;51.998;10.440;2023-06-14T18:08:42;4.97;;;3.07;;
32106;SDS011;18622;51.998;10.440;2023-06-14T18:11:12;6.37;;;2.60;;
32106;SDS011;18622;51.998;10.440;2023-06-14T18:13:41;6.62;;;2.95;;
32106;SDS011;18622;51.998;10.440;2023-06-14T18:16:09;4.67;;;2.73;;
32106;SDS011;18622;51.998;10.440;2023-06-14T18:18:39;9.73;;;3.52;;
32106;SDS011;18622;51.998;10.440;2023-06-14T18:21:08;15.28;;;3.10;;
32106;SDS011;18622;51.998;10.440;2023-06-14T18:23:35;3.30;;;2.43;;
32106;SDS011;18622;51.998;10.440;2023-06-14T18:26:03;7.03;;;3.00;;
32106;SDS011;18622;51.998;10.440;2023-06-14T18:28:31;6.17;;;3.07;;
32106;SDS011;18622;51.998;10.440;2023-06-14T18:30:59;12.27;;;3.37;;
32106;SDS011;18622;51.998;10.440;2023-06-14T18:33:26;8.17;;;2.80;;
32106;SDS011;18622;51.998;10.440;2023-06-14T18:35:54;13.87;;;3.00;;
32106;SDS011;18622;51.998;10.440;2023-06-14T18:38:22;8.53;;;2.67;;
32106;SDS011;18622;51.998;10.440;2023-06-14T18:40:51;8.70;;;2.85;;
32106;SDS011;18622;51.998;10.440;2023-06-14T18:43:19;6.07;;;3.20;;
32106;SDS011;18622;51.998;10.440;2023-06-14T18:45:47;7.43;;;3.10;;
32106;SDS011;18622;51.998;10.440;2023-06-14T18:48:14;5.00;;;2.97;;
32106;SDS011;18622;51.998;10.440;2023-06-14T18:50:42;8.63;;;2.90;;
32106;SDS011;18622;51.998;10.440;2023-06-14T18:53:10;6.97;;;2.90;;
32106;SDS011;18622;51.998;10.440;2023-06-14T18:55:38;3.70;;;2.43;;
32106;SDS011;18622;51.998;10.440;2023-06-14T18:58:06;10.63;;;2.67;;
32106;SDS011;18622;51.998;10.440;2023-06-14T19:00:34;5.23;;;3.17;;
32106;SDS011;18622;51.998;10.440;2023-06-14T19:03:02;11.27;;;3.30;;
32106;SDS011;18622;51.998;10.440;2023-06-14T19:05:30;6.30;;;3.33;;
32106;SDS011;18622;51.998;10.440;2023-06-14T19:07:58;8.10;;;2.90;;
32106;SDS011;18622;51.998;10.440;2023-06-14T19:10:26;9.63;;;3.47;;
32106;SDS011;18622;51.998;10.440;2023-06-14T19:12:53;12.87;;;2.90;;
32106;SDS011;18622;51.998;10.440;2023-06-14T19:15:21;8.40;;;3.17;;
32106;SDS011;18622;51.998;10.440;2023-06-14T19:17:57;12.20;;;2.70;;
32106;SDS011;18622;51.998;10.440;2023-06-14T19:20:25;7.63;;;3.53;;
32106;SDS011;18622;51.998;10.440;2023-06-14T19:22:54;5.58;;;2.65;;
32106;SDS011;18622;51.998;10.440;2023-06-14T19:25:21;9.67;;;3.30;;
32106;SDS011;18622;51.998;10.440;2023-06-14T19:27:49;4.23;;;2.77;;
32106;SDS011;18622;51.998;10.440;2023-06-14T19:30:17;7.13;;;3.43;;
32106;SDS011;18622;51.998;10.440;2023-06-14T19:32:45;5.30;;;2.83;;
32106;SDS011;18622;51.998;10.440;2023-06-14T19:35:15;10.80;;;3.08;;
32106;SDS011;18622;51.998;10.440;2023-06-14T19:37:47;6.67;;;2.77;;
32106;SDS011;18622;51.998;10.440;2023-06-14T19:40:15;9.70;;;2.80;;
32106;SDS011;18622;51.998;10.440;2023-06-14T19:42:44;4.42;;;2.65;;
32106;SDS011;18622;51.998;10.440;2023-06-14T19:45:12;9.43;;;3.30;;
32106;SDS011;18622;51.998;10.440;2023-06-14T19:47:39;7.10;;;3.03;;
32106;SDS011;18622;51.998;10.440;2023-06-14T19:50:09;5.72;;;3.00;;
32106;SDS011;18622;51.998;10.440;2023-06-14T19:52:37;11.60;;;3.33;;
32106;SDS011;18622;51.998;10.440;2023-06-14T19:55:05;5.07;;;2.80;;
32106;SDS011;18622;51.998;10.440;2023-06-14T19:57:33;15.10;;;3.10;;
32106;SDS011;18622;51.998;10.440;2023-06-14T20:00:00;19.67;;;2.90;;
32106;SDS011;18622;51.998;10.440;2023-06-14T20:02:29;5.35;;;2.95;;
32106;SDS011;18622;51.998;10.440;2023-06-14T20:04:57;5.83;;;2.77;;
32106;SDS011;18622;51.998;10.440;2023-06-14T20:07:25;7.23;;;3.17;;
32106;SDS011;18622;51.998;10.440;2023-06-14T20:09:53;11.87;;;2.80;;
32106;SDS011;18622;51.998;10.440;2023-06-14T20:12:23;7.85;;;2.80;;
32106;SDS011;18622;51.998;10.440;2023-06-14T20:14:51;7.23;;;3.07;;
32106;SDS011;18622;51.998;10.440;2023-06-14T20:17:19;6.47;;;3.03;;
32106;SDS011;18622;51.998;10.440;2023-06-14T20:19:46;7.10;;;2.60;;
32106;SDS011;18622;51.998;10.440;2023-06-14T20:22:14;8.90;;;3.03;;
32106;SDS011;18622;51.998;10.440;2023-06-14T20:24:42;6.83;;;2.90;;
32106;SDS011;18622;51.998;10.440;2023-06-14T20:27:10;15.63;;;3.03;;
32106;SDS011;18622;51.998;10.440;2023-06-14T20:29:38;8.00;;;3.10;;
32106;SDS011;18622;51.998;10.440;2023-06-14T20:32:06;5.50;;;2.97;;
32106;SDS011;18622;51.998;10.440;2023-06-14T20:34:34;8.00;;;2.60;;
32106;SDS011;18622;51.998;10.440;2023-06-14T20:37:02;7.37;;;3.03;;
32106;SDS011;18622;51.998;10.440;2023-06-14T20:39:30;9.27;;;3.27;;
32106;SDS011;18622;51.998;10.440;2023-06-14T20:41:58;7.50;;;2.90;;
32106;SDS011;18622;51.998;10.440;2023-06-14T20:44:26;6.00;;;3.03;;
